Time;durP1;ratioP1;P1;durP2;ratioP2;P2;SDS_P1;SDS_P2;PMS_P1;PMS_P2;Temp;Humidity;BMP_temperature;BMP_pressure;BME280_temperature;BME280_humidity;BME280_pressure;Samples;Min_cycle;Max_cycle;Signal;HPM_P1;HPM_P2
2023/09/07 00:01:44;;;;;;;13.18;11.80;;;;;;;19.80;85.52;101759.78;5088926;28;20036;-62
2023/09/07 00:04:10;;;;;;;17.30;12.25;;;;;;;19.86;85.03;101758.38;5073657;28;20145;-62
2023/09/07 00:06:36;;;;;;;12.55;11.10;;;;;;;19.87;85.00;101760.94;5072904;28;20021;-62
2023/09/07 00:09:03;;;;;;;13.57;12.15;;;;;;;19.88;84.98;101769.88;5073333;28;20145;-62
2023/09/07 00:11:30;;;;;;;14.60;12.63;;;;;;;19.82;85.37;101752.38;5073070;28;20052;-62
2023/09/07 00:13:58;;;;;;;15.23;11.88;;;;;;;19.79;84.74;101754.50;5073426;28;20037;-62
2023/09/07 00:16:23;;;;;;;13.13;11.73;;;;;;;19.81;85.27;101766.03;5073611;28;20099;-62
2023/09/07 00:18:49;;;;;;;14.20;11.27;;;;;;;19.70;85.31;101761.56;5073112;28;20548;-62
2023/09/07 00:21:14;;;;;;;13.70;12.05;;;;;;;19.66;85.63;101762.81;5073099;28;20025;-62
2023/09/07 00:23:40;;;;;;;13.38;12.18;;;;;;;19.65;85.78;101761.97;5073044;28;20028;-62
2023/09/07 00:26:06;;;;;;;14.93;11.63;;;;;;;19.67;85.51;101761.81;5072131;28;20077;-62
2023/09/07 00:28:31;;;;;;;14.52;11.43;;;;;;;19.63;85.34;101758.50;5073157;28;20032;-62
2023/09/07 00:30:59;;;;;;;16.48;11.52;;;;;;;19.59;85.89;101757.09;5072058;28;20372;-62
2023/09/07 00:33:26;;;;;;;16.88;12.63;;;;;;;19.56;86.06;101753.78;5072854;28;20690;-62
2023/09/07 00:35:52;;;;;;;12.45;11.20;;;;;;;19.42;86.70;101753.13;5088001;28;20411;-62
2023/09/07 00:38:17;;;;;;;13.82;12.43;;;;;;;19.48;86.37;101746.34;5072359;28;20543;-62
2023/09/07 00:40:46;;;;;;;13.35;11.95;;;;;;;19.47;86.55;101742.81;5072556;28;20092;-62
2023/09/07 00:43:14;;;;;;;13.43;12.05;;;;;;;19.42;86.46;101733.41;5071546;28;20041;-62
2023/09/07 00:45:40;;;;;;;15.07;12.02;;;;;;;19.42;86.46;101741.50;5070908;28;20410;-62
2023/09/07 00:48:06;;;;;;;14.15;11.60;;;;;;;19.28;86.70;101745.38;5072409;28;20036;-62
2023/09/07 00:50:32;;;;;;;12.70;11.10;;;;;;;19.26;86.42;101745.47;5072331;28;20479;-62
2023/09/07 00:52:59;;;;;;;13.20;11.90;;;;;;;19.24;86.60;101749.34;5071192;28;20115;-62
2023/09/07 00:55:27;;;;;;;14.70;11.30;;;;;;;19.21;86.57;101752.28;5070506;28;20040;-62
2023/09/07 00:57:53;;;;;;;15.93;11.93;;;;;;;19.12;86.75;101748.53;5069777;28;20028;-62
2023/09/07 01:00:18;;;;;;;13.65;12.27;;;;;;;19.14;87.11;101751.09;5072048;28;20027;-62
2023/09/07 01:02:44;;;;;;;12.82;11.48;;;;;;;19.21;86.42;101755.00;5071777;28;20042;-62
2023/09/07 01:05:11;;;;;;;17.30;11.48;;;;;;;19.07;86.98;101753.44;5087167;28;20036;-62
2023/09/07 01:07:47;;;;;;;13.77;12.05;;;;;;;19.02;87.21;101748.44;5070615;28;20043;-62
2023/09/07 01:10:13;;;;;;;14.82;11.52;;;;;;;19.11;86.75;101754.03;5071948;28;20021;-62
2023/09/07 01:12:42;;;;;;;13.25;11.82;;;;;;;19.01;86.99;101754.81;5072048;28;20016;-62
2023/09/07 01:15:08;;;;;;;14.57;11.40;;;;;;;18.94;87.25;101750.06;5072380;28;20115;-62
2023/09/07 01:17:34;;;;;;;14.98;12.55;;;;;;;18.88;87.11;101753.28;5089377;28;20035;-62
2023/09/07 01:20:06;;;;;;;12.77;11.57;;;;;;;18.84;87.50;101740.06;5072893;28;20025;-62
2023/09/07 01:22:31;;;;;;;14.93;11.95;;;;;;;18.91;87.54;101751.16;5073867;28;20374;-62
2023/09/07 01:24:58;;;;;;;13.73;12.38;;;;;;;18.90;87.70;101744.09;5072183;28;20107;-62
2023/09/07 01:27:24;;;;;;;14.38;12.75;;;;;;;18.83;87.79;101737.50;5073579;28;20024;-62
2023/09/07 01:29:50;;;;;;;16.48;12.63;;;;;;;18.79;87.72;101746.81;5072401;28;20066;-62
2023/09/07 01:32:16;;;;;;;12.90;11.60;;;;;;;18.73;87.25;101736.50;5072443;28;20068;-62
2023/09/07 01:34:41;;;;;;;15.18;12.85;;;;;;;18.82;87.26;101739.34;5088103;28;20075;-62
2023/09/07 01:37:06;;;;;;;15.25;13.73;;;;;;;18.80;87.66;101741.31;5073012;28;20078;-62
2023/09/07 01:39:32;;;;;;;14.23;12.85;;;;;;;18.76;87.71;101734.44;5073418;28;20048;-62
2023/09/07 01:41:57;;;;;;;12.70;11.57;;;;;;;18.79;87.32;101736.03;5065430;28;20051;-62
2023/09/07 01:44:23;;;;;;;14.60;12.13;;;;;;;18.68;87.63;101727.94;5093188;28;20028;-62
2023/09/07 01:46:48;;;;;;;14.50;13.02;;;;;;;18.64;87.85;101718.44;5095658;28;20434;-62
2023/09/07 01:49:13;;;;;;;14.50;13.00;;;;;;;18.61;88.13;101727.63;5105386;28;20029;-62
2023/09/07 01:51:39;;;;;;;15.80;13.90;;;;;;;18.64;87.90;101726.50;5071926;28;20078;-62
2023/09/07 01:54:05;;;;;;;15.05;13.45;;;;;;;18.52;88.44;101725.69;5088187;28;20062;-61
2023/09/07 01:56:30;;;;;;;15.63;14.07;;;;;;;18.51;88.70;101723.97;5072138;28;20024;-62
2023/09/07 01:58:56;;;;;;;15.80;14.13;;;;;;;18.45;89.01;101727.19;5072922;28;20248;-62
2023/09/07 02:01:26;;;;;;;15.23;13.73;;;;;;;18.55;88.67;101728.13;5072927;28;20524;-62
2023/09/07 02:03:54;;;;;;;15.65;14.00;;;;;;;18.45;88.22;101729.88;5070982;28;20036;-62
2023/09/07 02:06:21;;;;;;;15.32;13.93;;;;;;;18.52;88.58;101733.78;5071721;28;20024;-62
2023/09/07 02:08:47;;;;;;;14.43;13.05;;;;;;;18.40;88.66;101722.16;5070713;28;20028;-62
2023/09/07 02:11:12;;;;;;;16.58;14.88;;;;;;;18.42;89.08;101731.00;5072022;28;20055;-62
2023/09/07 02:13:41;;;;;;;15.85;14.15;;;;;;;18.42;89.11;101731.00;5072208;28;20218;-62
2023/09/07 02:16:06;;;;;;;16.73;15.18;;;;;;;18.39;89.26;101720.47;5070709;28;20028;-62
2023/09/07 02:18:33;;;;;;;15.98;14.07;;;;;;;18.30;89.53;101723.91;5071015;28;20025;-62
2023/09/07 02:21:03;;;;;;;15.77;13.95;;;;;;;18.33;89.46;101721.81;5071984;28;20017;-62
2023/09/07 02:23:29;;;;;;;16.30;14.80;;;;;;;18.23;89.88;101720.84;5071363;28;20032;-62
2023/09/07 02:25:54;;;;;;;16.48;13.38;;;;;;;18.13;89.67;101712.66;5071977;28;20043;-62
2023/09/07 02:28:20;;;;;;;17.85;14.73;;;;;;;18.23;89.41;101726.22;5071599;28;20487;-62
2023/09/07 02:30:45;;;;;;;15.13;13.63;;;;;;;18.20;89.55;101726.47;5086922;28;20036;-62
2023/09/07 02:33:11;;;;;;;16.17;14.57;;;;;;;18.27;89.16;101726.88;5072557;28;20106;-62
2023/09/07 02:35:39;;;;;;;15.35;13.73;;;;;;;18.00;90.26;101725.44;5071425;28;20043;-62
2023/09/07 02:38:04;;;;;;;15.17;13.77;;;;;;;18.08;89.97;101724.78;5072392;28;20495;-62
2023/09/07 02:40:30;;;;;;;16.13;14.52;;;;;;;18.15;90.11;101723.34;5070194;28;20290;-62
2023/09/07 02:42:55;;;;;;;15.60;14.00;;;;;;;18.05;90.47;101725.03;5071706;28;20391;-62
2023/09/07 02:45:24;;;;;;;16.33;14.73;;;;;;;17.98;90.81;101723.84;5071437;28;20024;-62
2023/09/07 02:47:50;;;;;;;15.70;14.07;;;;;;;18.00;90.63;101728.13;5071664;28;20070;-62
2023/09/07 02:50:18;;;;;;;16.23;14.75;;;;;;;17.99;90.87;101721.00;5100874;28;20033;-62
2023/09/07 02:52:46;;;;;;;15.85;14.25;;;;;;;17.94;90.63;101717.81;5087128;28;20028;-62
2023/09/07 02:55:11;;;;;;;16.60;14.90;;;;;;;17.93;90.93;101718.81;5062046;28;20095;-62
2023/09/07 02:57:37;;;;;;;15.27;13.77;;;;;;;17.92;90.88;101717.09;5079452;28;20020;-62
2023/09/07 03:00:09;;;;;;;17.05;14.82;;;;;;;17.96;90.86;101709.63;5051110;28;20028;-64
2023/09/07 03:02:34;;;;;;;15.52;14.05;;;;;;;17.90;90.71;101710.97;5050291;28;20021;-62
2023/09/07 03:05:00;;;;;;;15.32;13.82;;;;;;;17.76;91.36;101703.97;5050923;28;20380;-62
2023/09/07 03:07:25;;;;;;;15.75;14.27;;;;;;;17.61;91.63;101706.03;5052724;28;20116;-62
2023/09/07 03:09:52;;;;;;;17.85;16.02;;;;;;;17.67;91.47;101710.94;5051050;28;20025;-62
2023/09/07 03:12:18;;;;;;;16.00;14.50;;;;;;;17.77;91.75;101712.94;5051341;28;20025;-62
2023/09/07 03:14:44;;;;;;;16.05;14.30;;;;;;;17.81;91.54;101712.56;5086335;28;20023;-62
2023/09/07 03:17:09;;;;;;;16.45;14.75;;;;;;;17.60;92.53;101715.09;5097010;28;20017;-62
2023/09/07 03:19:37;;;;;;;17.42;15.63;;;;;;;17.62;92.79;101718.53;5050646;28;20029;-62
2023/09/07 03:22:03;;;;;;;17.75;16.05;;;;;;;17.57;93.24;101715.34;5083486;28;20042;-62
2023/09/07 03:24:28;;;;;;;16.40;14.40;;;;;;;17.67;93.08;101719.00;5079489;28;20380;-62
2023/09/07 03:26:54;;;;;;;17.00;14.77;;;;;;;17.76;92.67;101716.56;5051761;28;20032;-62
2023/09/07 03:29:19;;;;;;;15.57;14.07;;;;;;;17.66;92.67;101706.53;5102506;28;20035;-62
2023/09/07 03:31:45;;;;;;;14.85;13.55;;;;;;;17.65;92.78;101707.53;5071353;28;20479;-62
2023/09/07 03:34:10;;;;;;;17.38;14.45;;;;;;;17.61;93.12;101711.44;5103845;28;20538;-62
2023/09/07 03:36:36;;;;;;;17.85;14.68;;;;;;;17.62;93.49;101718.53;5070826;28;20032;-62
2023/09/07 03:39:01;;;;;;;15.65;14.15;;;;;;;17.67;92.52;101720.84;5058686;28;20418;-62
2023/09/07 03:41:30;;;;;;;16.42;13.35;;;;;;;17.63;92.08;101714.00;5067549;28;20432;-62
2023/09/07 03:43:56;;;;;;;14.93;13.35;;;;;;;17.77;91.32;101729.91;5071191;28;20024;-62
2023/09/07 03:46:22;;;;;;;15.65;13.35;;;;;;;17.67;92.10;101723.53;5084853;28;20023;-62
2023/09/07 03:48:47;;;;;;;14.65;13.15;;;;;;;17.59;92.63;101718.78;5071148;28;20028;-62
2023/09/07 03:51:13;;;;;;;15.50;13.88;;;;;;;17.59;92.81;101720.59;5070388;28;20487;-62
2023/09/07 03:53:38;;;;;;;15.88;14.38;;;;;;;17.55;92.98;101713.75;5070843;28;20051;-62
2023/09/07 03:56:04;;;;;;;14.32;13.02;;;;;;;17.59;92.58;101718.78;5069403;28;20061;-62
2023/09/07 03:58:29;;;;;;;15.45;13.88;;;;;;;17.54;92.71;101707.53;5085175;28;20043;-62
2023/09/07 04:00:59;;;;;;;15.23;13.68;;;;;;;17.59;92.54;101725.97;5089883;28;20027;-62
2023/09/07 04:03:24;;;;;;;14.50;13.05;;;;;;;17.54;92.33;101738.94;5091396;28;20085;-62
2023/09/07 04:05:50;;;;;;;13.13;11.85;;;;;;;17.49;92.60;101733.91;5094077;28;20021;-62
2023/09/07 04:08:16;;;;;;;14.10;12.55;;;;;;;17.46;92.99;101735.00;5050675;28;20387;-62
2023/09/07 04:10:41;;;;;;;14.93;13.38;;;;;;;17.45;93.50;101735.16;5049200;28;20116;-62
2023/09/07 04:13:06;;;;;;;15.05;13.63;;;;;;;17.44;92.89;101719.97;5050635;28;20028;-62
2023/09/07 04:15:34;;;;;;;14.73;13.27;;;;;;;17.40;93.11;101723.88;5067185;28;20035;-62
2023/09/07 04:17:59;;;;;;;15.48;14.07;;;;;;;17.28;94.15;101724.84;5069237;28;20025;-62
2023/09/07 04:20:26;;;;;;;15.23;13.63;;;;;;;17.37;93.56;101716.91;5070473;28;20031;-62
2023/09/07 04:22:51;;;;;;;16.42;13.77;;;;;;;17.37;93.95;101724.13;5070648;28;20024;-62
2023/09/07 04:25:17;;;;;;;14.80;12.55;;;;;;;17.40;93.65;101726.56;5070766;28;20433;-62
2023/09/07 04:27:42;;;;;;;15.65;13.95;;;;;;;17.30;94.19;101725.59;5068930;28;20032;-62
2023/09/07 04:30:08;;;;;;;16.00;13.43;;;;;;;17.29;94.64;101723.84;5070889;28;20096;-62
2023/09/07 04:32:33;;;;;;;15.15;13.63;;;;;;;17.24;94.49;101730.44;5086748;28;20119;-62
2023/09/07 04:34:59;;;;;;;14.45;13.02;;;;;;;17.42;93.93;101736.22;5070118;28;20023;-62
2023/09/07 04:37:25;;;;;;;15.00;13.50;;;;;;;17.28;94.05;101739.13;5067524;28;20108;-62
2023/09/07 04:39:53;;;;;;;14.68;13.18;;;;;;;17.39;93.72;101735.63;5073823;28;20062;-62
2023/09/07 04:42:20;;;;;;;18.60;13.73;;;;;;;17.15;94.20;101733.84;5074494;28;20040;-62
2023/09/07 04:44:47;;;;;;;15.40;13.77;;;;;;;17.20;93.87;101734.34;5056022;28;20035;-62
2023/09/07 04:47:13;;;;;;;13.85;12.63;;;;;;;17.24;92.47;101722.38;5074197;28;20025;-62
2023/09/07 04:49:38;;;;;;;14.32;12.80;;;;;;;17.09;94.12;101720.88;5088475;28;20579;-62
2023/09/07 04:52:04;;;;;;;15.13;13.60;;;;;;;17.22;94.08;101736.91;5053653;28;20480;-62
2023/09/07 04:54:29;;;;;;;13.68;12.27;;;;;;;17.15;93.55;101735.69;5053988;28;20434;-62
2023/09/07 04:56:55;;;;;;;13.38;12.07;;;;;;;17.22;93.06;101731.53;5071561;28;20028;-62
2023/09/07 04:59:20;;;;;;;14.50;12.65;;;;;;;17.20;93.41;101730.78;5089547;28;20063;-62
2023/09/07 05:01:48;;;;;;;13.57;12.15;;;;;;;17.14;93.65;101736.66;5073482;28;20024;-62
2023/09/07 05:04:14;;;;;;;17.70;13.73;;;;;;;17.10;93.51;101725.28;5073817;28;20486;-62
2023/09/07 05:06:41;;;;;;;14.85;12.15;;;;;;;17.17;93.54;101745.31;5088836;28;20024;-62
2023/09/07 05:09:07;;;;;;;14.00;12.70;;;;;;;17.15;93.56;101746.44;5093843;28;20063;-62
2023/09/07 05:11:34;;;;;;;15.88;12.85;;;;;;;17.07;93.78;101730.03;5109365;28;20060;-62
2023/09/07 05:14:01;;;;;;;13.77;12.48;;;;;;;17.21;93.17;101752.19;5089253;28;20062;-62
2023/09/07 05:16:26;;;;;;;14.27;12.50;;;;;;;17.16;93.37;101748.16;5072940;28;20161;-62
2023/09/07 05:18:54;;;;;;;13.98;12.57;;;;;;;17.06;93.80;101747.13;5089142;28;20467;-62
2023/09/07 05:21:20;;;;;;;14.43;12.13;;;;;;;17.13;93.75;101753.75;5072860;28;20020;-62
2023/09/07 05:23:46;;;;;;;16.75;13.48;;;;;;;17.10;94.14;101756.69;5074374;28;20085;-62
2023/09/07 05:26:11;;;;;;;15.20;12.43;;;;;;;17.03;94.34;101743.72;5072723;28;20028;-62
2023/09/07 05:28:41;;;;;;;13.85;12.55;;;;;;;17.15;93.82;101751.81;5073255;28;20028;-62
2023/09/07 05:31:07;;;;;;;14.40;12.85;;;;;;;16.98;94.03;101751.25;5073264;28;20054;-62
2023/09/07 05:33:33;;;;;;;17.00;12.38;;;;;;;17.06;94.09;101755.19;5073239;28;20491;-62
2023/09/07 05:35:58;;;;;;;16.48;12.30;;;;;;;17.06;94.32;101741.75;5071945;28;20028;-62
2023/09/07 05:38:23;;;;;;;14.80;12.27;;;;;;;16.98;94.31;101745.03;5071866;28;20020;-62
2023/09/07 05:40:53;;;;;;;13.85;12.35;;;;;;;16.96;95.06;101755.03;5090694;28;20081;-62
2023/09/07 05:43:19;;;;;;;13.60;12.20;;;;;;;17.04;94.77;101752.63;5093579;28;20035;-62
2023/09/07 05:45:44;;;;;;;14.73;12.40;;;;;;;16.95;95.09;101764.06;5075184;28;20017;-62
2023/09/07 05:48:10;;;;;;;14.05;12.13;;;;;;;17.04;95.47;101766.06;5072770;28;20553;-62
2023/09/07 05:50:37;;;;;;;13.88;12.38;;;;;;;17.02;95.82;101765.31;5070597;28;20074;-62
2023/09/07 05:53:04;;;;;;;15.27;12.52;;;;;;;16.97;96.07;101756.72;5072896;28;20024;-62
2023/09/07 05:55:29;;;;;;;14.20;12.80;;;;;;;17.02;96.60;101760.78;5103387;28;20028;-62
2023/09/07 05:57:55;;;;;;;15.05;12.18;;;;;;;17.03;96.86;101770.59;5072157;28;20051;-62
2023/09/07 06:00:21;;;;;;;13.40;11.60;;;;;;;17.15;96.71;101776.88;5072390;28;20449;-62
2023/09/07 06:02:47;;;;;;;12.88;11.68;;;;;;;17.18;96.97;101765.88;5071100;28;20032;-62
2023/09/07 06:05:13;;;;;;;13.43;12.05;;;;;;;17.21;96.72;101764.78;5070575;28;20024;-62
2023/09/07 06:07:39;;;;;;;12.70;11.52;;;;;;;17.34;96.65;101776.31;5070674;28;20059;-62
2023/09/07 06:10:05;;;;;;;14.93;12.63;;;;;;;17.30;97.11;101780.22;5069899;28;20047;-62
2023/09/07 06:12:34;;;;;;;12.45;11.15;;;;;;;17.24;97.59;101769.94;5069185;28;20036;-61
2023/09/07 06:15:00;;;;;;;16.02;12.27;;;;;;;17.35;97.46;101780.69;5094341;28;20028;-62
2023/09/07 06:17:26;;;;;;;12.93;11.75;;;;;;;17.42;97.90;101781.97;5083894;28;20491;-62
2023/09/07 06:19:51;;;;;;;12.52;11.32;;;;;;;17.51;97.29;101771.47;5063402;28;20119;-62
2023/09/07 06:22:17;;;;;;;13.40;11.90;;;;;;;17.55;97.04;101784.53;5068858;28;20471;-62
2023/09/07 06:24:42;;;;;;;13.88;12.48;;;;;;;17.52;97.42;101787.47;5092269;28;20020;-62
2023/09/07 06:27:07;;;;;;;14.48;12.95;;;;;;;17.66;98.36;101786.41;5086507;28;20119;-62
2023/09/07 06:29:33;;;;;;;15.98;11.73;;;;;;;17.71;97.05;101776.16;5071248;28;20039;-62
2023/09/07 06:31:58;;;;;;;15.15;12.38;;;;;;;17.80;98.02;101791.59;5071928;28;20109;-62
2023/09/07 06:34:24;;;;;;;15.20;12.43;;;;;;;17.82;97.29;101788.78;5070725;28;20046;-62
2023/09/07 06:36:51;;;;;;;16.00;13.45;;;;;;;17.88;96.88;101791.88;5070020;28;20078;-62
2023/09/07 06:39:17;;;;;;;15.43;12.05;;;;;;;17.92;95.96;101779.00;5068766;28;20282;-62
2023/09/07 06:41:48;;;;;;;17.73;12.57;;;;;;;17.95;96.57;101786.00;5069048;28;20452;-62
2023/09/07 06:44:13;;;;;;;15.48;12.48;;;;;;;18.00;95.96;101781.06;5069003;28;20039;-62
2023/09/07 06:46:39;;;;;;;13.43;12.10;;;;;;;18.04;96.22;101778.03;5069696;28;20024;-62
2023/09/07 06:49:04;;;;;;;13.35;11.45;;;;;;;18.20;95.08;101795.66;5069236;28;20029;-62
2023/09/07 06:51:31;;;;;;;13.00;11.88;;;;;;;18.18;93.17;101785.00;5085688;28;20024;-62
2023/09/07 06:53:56;;;;;;;15.45;10.80;;;;;;;18.33;94.24;101797.25;5069860;28;20033;-62
2023/09/07 06:56:22;;;;;;;12.50;11.30;;;;;;;18.47;92.08;101798.81;5069921;28;20572;-62
2023/09/07 06:58:47;;;;;;;12.48;11.13;;;;;;;18.52;93.39;101799.28;5069970;28;20032;-62
2023/09/07 07:01:12;;;;;;;12.70;11.45;;;;;;;18.61;91.98;101797.66;5069433;28;20024;-62
2023/09/07 07:03:41;;;;;;;12.48;11.27;;;;;;;18.61;91.84;101795.81;5069991;28;20012;-61
2023/09/07 07:06:07;;;;;;;12.35;11.05;;;;;;;18.74;90.51;101802.97;5069481;28;20138;-62
2023/09/07 07:08:33;;;;;;;15.63;11.27;;;;;;;18.82;89.38;101804.03;5067835;28;20103;-62
2023/09/07 07:10:58;;;;;;;12.88;10.60;;;;;;;18.87;88.88;101809.03;5067176;28;20032;-62
2023/09/07 07:13:24;;;;;;;12.48;10.65;;;;;;;18.92;87.15;101803.28;5085343;28;20388;-62
2023/09/07 07:15:51;;;;;;;12.95;10.25;;;;;;;18.86;90.16;101793.00;5069018;28;20107;-61
2023/09/07 07:18:17;;;;;;;17.25;10.57;;;;;;;19.03;88.64;101812.19;5085650;28;20116;-62
2023/09/07 07:20:43;;;;;;;12.77;9.48;;;;;;;19.10;89.60;101815.22;5069167;28;20103;-62
2023/09/07 07:23:09;;;;;;;12.45;9.57;;;;;;;19.09;90.47;101808.13;5074637;28;20024;-62
2023/09/07 07:25:36;;;;;;;11.13;9.38;;;;;;;19.20;87.15;101799.97;5067622;28;20028;-62
2023/09/07 07:28:05;;;;;;;15.30;9.75;;;;;;;19.38;87.03;101804.78;5067689;28;20082;-62
2023/09/07 07:30:34;;;;;;;12.88;9.23;;;;;;;19.50;86.31;101810.00;5068021;28;20032;-62
2023/09/07 07:33:00;;;;;;;15.30;9.13;;;;;;;19.63;83.92;101804.41;5061899;28;20058;-62
2023/09/07 07:35:28;;;;;;;11.82;8.50;;;;;;;19.73;84.02;101813.44;5070089;28;20123;-62
2023/09/07 07:37:54;;;;;;;14.98;8.00;;;;;;;19.77;84.57;101807.78;5068730;28;20020;-61
2023/09/07 07:40:21;;;;;;;9.20;8.30;;;;;;;19.82;84.10;101805.53;5070931;28;20050;-61
2023/09/07 07:42:48;;;;;;;12.95;7.72;;;;;;;19.84;85.40;101817.06;5069247;28;20391;-61
2023/09/07 07:45:14;;;;;;;8.43;7.15;;;;;;;19.86;84.51;101813.25;5069968;28;20036;-62
2023/09/07 07:47:42;;;;;;;8.30;7.50;;;;;;;19.93;85.01;101806.31;5069707;28;20074;-61
2023/09/07 07:50:08;;;;;;;14.23;7.40;;;;;;;20.06;84.02;101811.50;5069543;28;20033;-61
2023/09/07 07:52:34;;;;;;;12.02;7.13;;;;;;;20.02;85.69;101803.78;5069001;28;20032;-61
2023/09/07 07:55:00;;;;;;;10.45;7.07;;;;;;;20.16;80.63;101787.22;5084040;28;20070;-62
2023/09/07 07:57:27;;;;;;;10.60;7.68;;;;;;;20.25;82.97;101793.66;5069396;28;20139;-61
2023/09/07 07:59:54;;;;;;;9.38;7.15;;;;;;;20.29;82.55;101787.81;5066809;28;20040;-61
2023/09/07 08:02:20;;;;;;;7.25;6.55;;;;;;;20.44;81.37;101774.78;5046464;28;20017;-62
2023/09/07 08:04:45;;;;;;;12.45;6.78;;;;;;;20.67;77.77;101796.22;5083330;28;20051;-61
2023/09/07 08:07:11;;;;;;;10.55;7.20;;;;;;;20.66;80.53;101794.53;5068294;28;20104;-62
2023/09/07 08:09:37;;;;;;;11.52;7.30;;;;;;;20.83;78.51;101791.97;5068240;28;20060;-61
2023/09/07 08:12:05;;;;;;;11.40;7.00;;;;;;;20.95;76.95;101789.16;5067852;28;20032;-61
2023/09/07 08:14:31;;;;;;;7.70;6.88;;;;;;;21.07;77.50;101785.31;5071139;28;20028;-61
2023/09/07 08:16:57;;;;;;;9.77;7.03;;;;;;;21.13;76.74;101795.56;5070558;28;20039;-61
2023/09/07 08:19:23;;;;;;;7.68;6.05;;;;;;;21.17;78.71;101788.84;5071361;28;20039;-61
2023/09/07 08:21:48;;;;;;;8.73;6.65;;;;;;;21.35;74.66;101788.13;5071848;28;20438;-61
2023/09/07 08:24:14;;;;;;;12.50;6.97;;;;;;;21.46;76.20;101785.31;5072315;28;20082;-61
2023/09/07 08:26:41;;;;;;;7.85;5.82;;;;;;;21.53;75.84;101768.34;5070892;28;20122;-62
2023/09/07 08:29:08;;;;;;;7.32;6.30;;;;;;;21.64;75.90;101774.56;5068433;28;20025;-61
2023/09/07 08:31:38;;;;;;;12.20;6.28;;;;;;;21.75;75.17;101771.69;5082069;28;20803;-62
2023/09/07 08:34:06;;;;;;;7.97;5.82;;;;;;;21.88;74.62;101777.63;5061483;28;20097;-60
2023/09/07 08:36:33;;;;;;;9.80;5.97;;;;;;;21.96;76.27;101775.03;5071498;28;20051;-59
2023/09/07 08:39:12;;;;;;;12.52;6.35;;;;;;;22.02;74.02;101764.63;5072234;28;20074;-59
2023/09/07 08:41:43;;;;;;;10.15;6.05;;;;;;;22.13;73.09;101770.69;5069434;28;20450;-60
2023/09/07 08:44:10;;;;;;;9.40;5.78;;;;;;;22.33;73.65;101767.94;5073043;28;20495;-60
2023/09/07 08:46:37;;;;;;;5.95;5.05;;;;;;;22.41;75.02;101766.19;5089318;28;20034;-59
2023/09/07 08:49:04;;;;;;;8.95;5.32;;;;;;;22.67;72.13;101770.84;5071470;28;20387;-59
2023/09/07 08:51:31;;;;;;;7.35;5.20;;;;;;;22.77;69.47;101768.94;5088258;28;20028;-60
2023/09/07 08:53:57;;;;;;;5.90;4.93;;;;;;;22.86;70.17;101761.72;5072876;28;20067;-59
2023/09/07 08:56:23;;;;;;;9.05;5.55;;;;;;;23.07;66.59;101775.00;5073215;28;20028;-58
2023/09/07 08:58:51;;;;;;;6.80;5.03;;;;;;;23.14;69.31;101776.06;5072160;28;20028;-59
2023/09/07 09:01:18;;;;;;;9.60;5.30;;;;;;;23.30;66.37;101770.78;5071371;28;20020;-60
2023/09/07 09:03:43;;;;;;;6.15;4.78;;;;;;;23.37;68.47;101765.56;5075376;28;20149;-59
2023/09/07 09:06:10;;;;;;;7.13;5.28;;;;;;;23.35;63.47;101768.47;5072001;28;20415;-60
2023/09/07 09:08:49;;;;;;;8.00;4.93;;;;;;;23.43;65.05;101769.53;5072782;28;20478;-60
2023/09/07 09:11:15;;;;;;;11.20;5.20;;;;;;;23.49;66.28;101767.03;5062161;28;20107;-61
2023/09/07 09:13:41;;;;;;;10.75;4.90;;;;;;;23.52;67.47;101766.69;5072842;28;20426;-59
2023/09/07 09:16:07;;;;;;;9.00;5.82;;;;;;;23.58;67.84;101771.50;5072376;28;20425;-60
2023/09/07 09:18:32;;;;;;;6.28;5.07;;;;;;;23.62;66.31;101765.75;5072800;28;20410;-60
2023/09/07 09:21:00;;;;;;;7.47;4.82;;;;;;;23.74;68.05;101767.22;5075351;28;20024;-60
2023/09/07 09:23:36;;;;;;;8.97;4.83;;;;;;;23.89;65.31;101770.22;5072244;28;20103;-60
2023/09/07 09:26:04;;;;;;;6.00;4.97;;;;;;;24.03;61.69;101769.56;5071664;28;20278;-60
2023/09/07 09:28:34;;;;;;;9.97;5.87;;;;;;;24.17;61.96;101759.97;5072962;28;20384;-60
2023/09/07 09:31:03;;;;;;;11.20;4.82;;;;;;;24.23;61.29;101764.75;5071262;28;20795;-60
2023/09/07 09:33:34;;;;;;;7.10;4.85;;;;;;;24.28;62.85;101762.38;5072732;28;20044;-59
2023/09/07 09:36:00;;;;;;;8.70;5.03;;;;;;;24.23;61.21;101756.59;5053172;28;20032;-60
2023/09/07 09:38:26;;;;;;;8.45;4.70;;;;;;;24.35;63.18;101754.41;5074493;28;20025;-62
2023/09/07 09:40:52;;;;;;;6.53;4.88;;;;;;;24.40;61.89;101746.63;5070411;28;20026;-61
2023/09/07 09:43:22;;;;;;;8.07;4.95;;;;;;;24.42;63.25;101745.47;5070305;28;20163;-61
2023/09/07 09:45:50;;;;;;;6.60;4.78;;;;;;;24.55;60.73;101753.16;5071646;28;20491;-61
2023/09/07 09:48:18;;;;;;;8.68;4.80;;;;;;;24.72;61.55;101751.31;5069319;28;20028;-62
2023/09/07 09:50:44;;;;;;;9.82;4.88;;;;;;;24.71;60.81;101749.63;5071585;28;20027;-62
2023/09/07 09:53:15;;;;;;;6.13;4.45;;;;;;;24.90;61.91;101749.28;5071495;28;20060;-60
2023/09/07 09:55:41;;;;;;;9.40;4.43;;;;;;;24.92;62.23;101744.53;5073287;28;20024;-59
2023/09/07 09:58:06;;;;;;;7.15;4.72;;;;;;;25.02;60.17;101746.25;5072036;28;20047;-61
2023/09/07 10:00:37;;;;;;;6.20;4.60;;;;;;;25.08;59.14;101740.97;5071582;28;20060;-62
2023/09/07 10:03:11;;;;;;;10.13;4.38;;;;;;;25.17;58.97;101750.00;5071142;28;20032;-60
2023/09/07 10:05:37;;;;;;;8.25;4.22;;;;;;;25.07;59.22;101741.16;5072491;28;20017;-61
2023/09/07 10:08:09;;;;;;;7.97;4.47;;;;;;;25.40;58.55;101754.78;5072359;28;20028;-59
2023/09/07 10:10:40;;;;;;;10.15;5.00;;;;;;;25.18;56.83;101738.13;5072115;28;20298;-61
2023/09/07 10:13:05;;;;;;;6.85;4.35;;;;;;;25.40;59.81;101733.81;5107893;28;20391;-60
2023/09/07 10:15:32;;;;;;;9.70;4.75;;;;;;;25.55;55.96;101740.25;5075997;28;20029;-59
2023/09/07 10:18:10;;;;;;;9.63;4.72;;;;;;;25.53;58.36;101736.00;5070981;28;20036;-60
2023/09/07 10:20:49;;;;;;;6.65;4.72;;;;;;;25.78;56.81;101743.09;5071403;28;20028;-60
2023/09/07 10:23:15;;;;;;;5.15;4.40;;;;;;;25.80;59.12;101735.63;5087929;28;20035;-59
2023/09/07 10:25:48;;;;;;;7.18;4.55;;;;;;;25.92;57.99;101738.84;5086392;28;20395;-60
2023/09/07 10:28:25;;;;;;;4.97;4.30;;;;;;;26.04;57.39;101731.13;5072204;28;20036;-60
2023/09/07 10:30:58;;;;;;;7.25;4.40;;;;;;;26.13;55.77;101726.50;5066540;28;20033;-60
2023/09/07 10:33:23;;;;;;;9.57;4.75;;;;;;;26.23;53.22;101727.09;5070536;28;20048;-60
2023/09/07 10:35:49;;;;;;;7.35;4.50;;;;;;;26.28;55.32;101727.44;5069311;28;20062;-61
2023/09/07 10:38:14;;;;;;;6.78;4.28;;;;;;;26.24;55.08;101724.22;5071274;28;20024;-61
2023/09/07 10:40:46;;;;;;;5.13;4.22;;;;;;;26.31;56.20;101723.50;5088457;27;20033;-60
2023/09/07 10:43:11;;;;;;;7.63;4.35;;;;;;;26.43;54.14;101720.19;5058410;28;20036;-59
2023/09/07 10:45:36;;;;;;;6.50;4.35;;;;;;;26.48;53.75;101715.03;5070642;28;20032;-59
2023/09/07 10:48:03;;;;;;;8.50;4.35;;;;;;;26.53;53.49;101714.50;5071531;28;20116;-58
2023/09/07 10:50:29;;;;;;;8.63;4.60;;;;;;;26.68;55.74;101711.88;5078092;28;20029;-58
2023/09/07 10:52:55;;;;;;;8.43;4.70;;;;;;;26.70;52.80;101704.34;5071010;28;20031;-58
2023/09/07 10:55:21;;;;;;;5.80;4.40;;;;;;;26.72;52.79;101705.00;5071206;28;20028;-58
2023/09/07 10:57:47;;;;;;;10.07;4.65;;;;;;;26.68;53.49;101706.41;5071328;28;20114;-58
2023/09/07 11:00:14;;;;;;;7.95;4.13;;;;;;;26.84;54.17;101709.00;5078977;28;20054;-58
2023/09/07 11:02:41;;;;;;;7.03;4.20;;;;;;;26.89;52.65;101700.28;5054597;28;20056;-58
2023/09/07 11:05:07;;;;;;;6.13;4.15;;;;;;;27.01;52.57;101696.06;5061325;28;20502;-58
2023/09/07 11:07:34;;;;;;;9.48;4.28;;;;;;;27.09;53.63;101701.47;5070305;28;20024;-58
2023/09/07 11:10:00;;;;;;;5.70;3.78;;;;;;;27.21;52.52;101707.38;5070278;28;20035;-58
2023/09/07 11:12:25;;;;;;;5.93;3.88;;;;;;;27.34;51.68;101704.81;5070942;28;20028;-58